Time;durP1;ratioP1;P1;durP2;ratioP2;P2;SDS_P1;SDS_P2;PMS_P1;PMS_P2;Temp;Humidity;BMP_temperature;BMP_pressure;BME280_temperature;BME280_humidity;BME280_pressure;Samples;Min_cycle;Max_cycle;Signal;HPM_P1;HPM_P2
2023/09/29 07:58:45;;;;;;;3.42;1.20;;;21.70;99.90;;;;;;4954125;28;20231;-74
2023/09/29 08:01:11;;;;;;;3.92;1.20;;;21.80;99.90;;;;;;4952157;28;20329;-75
2023/09/29 08:03:38;;;;;;;1.83;1.15;;;22.00;99.90;;;;;;4957426;28;20263;-72
2023/09/29 08:06:05;;;;;;;3.83;1.00;;;22.40;99.90;;;;;;4957372;29;20287;-73
2023/09/29 08:08:32;;;;;;;2.17;1.10;;;22.80;99.90;;;;;;4957668;28;20207;-73
2023/09/29 08:10:59;;;;;;;4.05;1.20;;;22.90;99.90;;;;;;4956871;29;20356;-74
2023/09/29 08:13:26;;;;;;;2.90;1.20;;;23.30;99.90;;;;;;4956936;29;20288;-74
2023/09/29 08:15:54;;;;;;;3.20;1.17;;;23.50;99.90;;;;;;4957305;28;20204;-75
2023/09/29 08:18:21;;;;;;;3.83;1.40;;;23.60;99.90;;;;;;4957221;29;20204;-73
2023/09/29 08:20:53;;;;;;;4.85;1.40;;;23.60;99.90;;;;;;4956985;28;20294;-74
2023/09/29 08:23:20;;;;;;;4.47;1.05;;;23.80;99.90;;;;;;4957024;29;20311;-75
2023/09/29 08:25:48;;;;;;;5.90;1.35;;;24.10;99.90;;;;;;4956940;28;20207;-73
2023/09/29 08:28:15;;;;;;;4.43;1.30;;;24.40;99.90;;;;;;4957215;29;20631;-73
2023/09/29 08:30:41;;;;;;;3.67;1.10;;;24.50;99.90;;;;;;4956052;28;20667;-73
2023/09/29 08:33:10;;;;;;;4.10;1.30;;;24.60;99.90;;;;;;4951534;29;20291;-74
2023/09/29 08:35:37;;;;;;;3.78;1.20;;;24.50;99.90;;;;;;4956797;28;20236;-73
2023/09/29 08:38:05;;;;;;;6.13;1.50;;;24.30;99.90;;;;;;4955732;29;20211;-74
2023/09/29 08:40:39;;;;;;;3.65;1.58;;;23.90;99.90;;;;;;4970932;28;20203;-77
2023/09/29 08:43:10;;;;;;;4.95;1.60;;;23.60;99.90;;;;;;4959674;28;20231;-81
2023/09/29 08:45:41;;;;;;;5.20;1.80;;;23.50;99.90;;;;;;4957225;28;20283;-76
2023/09/29 08:48:11;;;;;;;2.50;1.17;;;23.40;99.90;;;;;;4956038;28;20215;-73
2023/09/29 08:50:40;;;;;;;3.53;1.17;;;23.20;99.90;;;;;;4954781;28;20306;-73
2023/09/29 08:53:09;;;;;;;5.03;1.33;;;23.20;99.90;;;;;;4956210;29;20699;-75
2023/09/29 08:55:37;;;;;;;6.65;1.77;;;23.30;99.90;;;;;;4956539;28;20256;-76
2023/09/29 08:58:04;;;;;;;5.20;1.50;;;23.20;99.90;;;;;;4956456;29;20299;-76
2023/09/29 09:00:31;;;;;;;5.60;1.60;;;23.00;99.90;;;;;;4956285;28;20204;-74
2023/09/29 09:03:01;;;;;;;5.72;1.33;;;22.90;99.90;;;;;;4956044;29;20204;-75
2023/09/29 09:05:29;;;;;;;3.63;1.10;;;22.80;99.90;;;;;;4956881;28;20538;-75
2023/09/29 09:08:01;;;;;;;3.95;1.40;;;22.50;99.90;;;;;;4956368;29;20235;-74
2023/09/29 09:10:32;;;;;;;4.03;1.40;;;22.50;99.90;;;;;;4955459;28;20228;-75
2023/09/29 09:13:02;;;;;;;3.67;1.10;;;22.60;99.90;;;;;;4956232;29;20297;-75
2023/09/29 09:15:30;;;;;;;4.55;1.55;;;22.80;99.90;;;;;;4955452;28;20300;-75
2023/09/29 09:17:58;;;;;;;9.18;1.83;;;22.90;99.90;;;;;;4955995;29;20207;-74
2023/09/29 09:20:26;;;;;;;4.20;1.42;;;23.00;99.90;;;;;;4955372;28;20736;-74
2023/09/29 09:23:02;;;;;;;3.90;1.35;;;23.00;99.90;;;;;;4955397;29;20240;-74
2023/09/29 09:25:35;;;;;;;5.85;1.70;;;23.20;99.90;;;;;;4967942;28;20234;-74
2023/09/29 09:28:02;;;;;;;5.38;1.00;;;23.30;99.90;;;;;;4957188;28;20207;-72
2023/09/29 09:30:35;;;;;;;4.00;1.20;;;23.40;99.90;;;;;;4955387;28;20759;-73
2023/09/29 09:33:04;;;;;;;4.30;1.48;;;23.30;99.90;;;;;;4955223;29;20208;-77
2023/09/29 09:35:31;;;;;;;3.45;0.98;;;23.10;99.90;;;;;;4959325;28;20212;-73
2023/09/29 09:38:01;;;;;;;3.67;1.60;;;22.70;99.90;;;;;;4965476;29;20724;-76
2023/09/29 09:40:28;;;;;;;2.85;1.00;;;22.40;99.90;;;;;;4970990;28;20571;-75
2023/09/29 09:42:58;;;;;;;5.53;1.40;;;22.20;99.90;;;;;;4963694;28;20207;-74
2023/09/29 09:45:25;;;;;;;3.85;1.67;;;21.90;99.90;;;;;;4956025;28;20295;-73
2023/09/29 09:47:58;;;;;;;5.32;1.60;;;21.70;99.90;;;;;;4955740;29;20208;-73
2023/09/29 09:50:28;;;;;;;3.97;1.35;;;21.50;99.90;;;;;;4955217;28;20233;-78
2023/09/29 09:52:55;;;;;;;2.95;0.93;;;21.30;99.90;;;;;;4954946;29;20696;-73
2023/09/29 09:55:37;;;;;;;3.22;1.00;;;21.10;99.90;;;;;;4955031;28;20256;-72
2023/09/29 09:58:09;;;;;;;3.75;1.45;;;20.90;99.90;;;;;;4954057;28;20219;-72
2023/09/29 10:00:37;;;;;;;2.78;1.10;;;20.90;99.90;;;;;;4954599;28;20259;-72
2023/09/29 10:03:11;;;;;;;3.88;0.98;;;20.90;99.90;;;;;;4954779;29;20295;-72
2023/09/29 10:05:40;;;;;;;2.65;1.00;;;20.90;99.90;;;;;;4954740;28;20204;-73
2023/09/29 10:08:10;;;;;;;3.10;0.98;;;20.90;99.90;;;;;;4954987;29;20550;-72
2023/09/29 10:10:40;;;;;;;2.85;0.98;;;21.00;99.90;;;;;;4955785;28;20232;-73
2023/09/29 10:13:11;;;;;;;2.70;1.10;;;21.20;99.90;;;;;;4957534;29;20242;-72
2023/09/29 10:15:38;;;;;;;2.90;1.02;;;21.30;99.90;;;;;;4956305;28;20612;-72
2023/09/29 10:18:15;;;;;;;2.83;0.85;;;21.30;99.90;;;;;;4957078;29;20242;-74
2023/09/29 10:20:43;;;;;;;2.15;0.80;;;21.20;99.90;;;;;;4958083;28;20212;-73
2023/09/29 10:23:14;;;;;;;3.13;1.08;;;21.10;99.90;;;;;;4954644;29;20259;-72
2023/09/29 10:25:44;;;;;;;3.30;1.02;;;21.20;99.90;;;;;;4954475;28;20218;-72
2023/09/29 10:28:12;;;;;;;2.58;1.08;;;21.20;99.90;;;;;;4954371;29;20239;-72
2023/09/29 10:30:40;;;;;;;3.58;1.00;;;21.40;99.90;;;;;;4964138;28;20223;-72
2023/09/29 10:33:11;;;;;;;4.40;1.23;;;21.60;99.90;;;;;;4957661;28;20208;-74
2023/09/29 10:35:45;;;;;;;3.90;0.85;;;21.90;99.90;;;;;;4954735;28;20212;-72
2023/09/29 10:38:15;;;;;;;2.78;0.90;;;21.90;99.90;;;;;;4953657;28;20334;-72
2023/09/29 10:40:44;;;;;;;4.57;0.98;;;22.20;99.90;;;;;;4963055;28;20298;-72
2023/09/29 10:43:12;;;;;;;2.97;0.88;;;22.30;99.90;;;;;;4956752;28;20212;-73
2023/09/29 10:45:40;;;;;;;5.43;1.33;;;22.20;99.90;;;;;;4954489;28;20200;-73
2023/09/29 10:48:08;;;;;;;2.33;1.05;;;22.10;99.90;;;;;;4953988;29;20215;-74
2023/09/29 10:50:42;;;;;;;5.32;1.10;;;21.80;99.90;;;;;;4954063;28;20200;-73
2023/09/29 10:53:09;;;;;;;3.40;0.90;;;21.70;99.90;;;;;;4953609;29;20244;-73
2023/09/29 10:55:43;;;;;;;3.95;1.02;;;21.70;99.90;;;;;;4953717;28;20283;-72
2023/09/29 10:58:11;;;;;;;2.97;1.20;;;21.70;99.90;;;;;;4952552;29;20219;-73
2023/09/29 11:00:43;;;;;;;9.98;2.67;;;21.60;99.90;;;;;;4961551;28;20209;-79
2023/09/29 11:03:12;;;;;;;3.60;1.20;;;21.40;99.90;;;;;;4956837;28;20643;-77
2023/09/29 11:05:49;;;;;;;2.58;0.93;;;21.40;99.90;;;;;;4953901;28;20661;-78
2023/09/29 11:08:19;;;;;;;3.38;0.85;;;21.30;99.90;;;;;;4953170;29;20243;-78
2023/09/29 11:11:02;;;;;;;4.00;0.98;;;21.30;99.90;;;;;;4955551;28;20232;-79
2023/09/29 11:13:30;;;;;;;2.67;0.95;;;21.40;99.90;;;;;;4956711;29;20234;-79
2023/09/29 11:15:58;;;;;;;7.25;1.27;;;21.40;99.90;;;;;;4957632;28;20227;-78
2023/09/29 11:18:32;;;;;;;1.92;0.80;;;21.50;99.90;;;;;;4957286;29;20239;-74
2023/09/29 11:21:00;;;;;;;3.45;1.17;;;21.30;99.90;;;;;;4957889;28;20218;-75
2023/09/29 11:23:29;;;;;;;3.60;1.48;;;21.10;99.90;;;;;;4957523;29;20311;-78
2023/09/29 11:25:58;;;;;;;4.25;1.08;;;21.10;99.90;;;;;;4957624;28;20259;-74
2023/09/29 11:28:27;;;;;;;5.25;1.20;;;21.20;99.90;;;;;;4957440;29;20259;-79
2023/09/29 11:30:55;;;;;;;2.78;1.15;;;21.10;99.90;;;;;;4966412;28;20231;-77
2023/09/29 11:33:22;;;;;;;2.53;1.17;;;21.10;99.90;;;;;;4958727;28;20736;-74
2023/09/29 11:35:51;;;;;;;6.07;1.23;;;21.20;99.90;;;;;;4958221;28;20661;-75
2023/09/29 11:38:20;;;;;;;8.05;1.35;;;21.10;99.90;;;;;;4957585;29;20223;-74
2023/09/29 11:40:48;;;;;;;5.07;1.40;;;21.00;99.90;;;;;;4957756;28;20200;-75
2023/09/29 11:43:15;;;;;;;4.40;1.60;;;20.70;99.90;;;;;;4957408;29;20239;-75
2023/09/29 11:45:44;;;;;;;5.82;2.08;;;20.70;99.90;;;;;;4956955;28;20204;-79
2023/09/29 11:48:11;;;;;;;4.50;1.52;;;20.70;99.90;;;;;;4957172;29;20214;-75
2023/09/29 11:50:38;;;;;;;7.22;1.30;;;20.60;99.90;;;;;;4957693;28;20751;-75
2023/09/29 11:53:07;;;;;;;6.50;1.80;;;20.70;99.90;;;;;;4956536;29;20240;-76
2023/09/29 11:55:37;;;;;;;6.07;1.67;;;20.60;99.90;;;;;;4957804;28;20255;-74
2023/09/29 11:58:04;;;;;;;15.93;1.73;;;20.60;99.90;;;;;;4957140;29;20215;-75
2023/09/29 12:00:32;;;;;;;3.88;1.23;;;20.60;99.90;;;;;;4956616;28;20637;-73
2023/09/29 12:03:00;;;;;;;4.45;1.30;;;20.50;99.90;;;;;;4957041;29;20212;-72
2023/09/29 12:05:27;;;;;;;5.40;1.83;;;20.40;99.90;;;;;;4957444;28;20236;-73
2023/09/29 12:07:54;;;;;;;4.05;1.35;;;20.30;99.90;;;;;;4957411;29;20244;-73
2023/09/29 12:10:21;;;;;;;4.35;1.50;;;20.20;99.90;;;;;;4957428;28;20208;-72
2023/09/29 12:12:48;;;;;;;3.03;1.33;;;20.30;99.90;;;;;;4956868;29;20327;-71
2023/09/29 12:15:17;;;;;;;5.43;1.40;;;20.30;99.90;;;;;;4957030;28;20314;-72
2023/09/29 12:17:44;;;;;;;3.70;1.50;;;20.30;99.90;;;;;;4957208;29;20294;-72
2023/09/29 12:20:14;;;;;;;4.22;1.25;;;20.30;99.90;;;;;;4956925;28;20703;-72
2023/09/29 12:22:43;;;;;;;3.78;1.67;;;20.30;99.90;;;;;;4955806;28;20271;-72
2023/09/29 12:25:11;;;;;;;2.22;1.35;;;20.20;99.90;;;;;;4956972;29;20318;-72
2023/09/29 12:27:39;;;;;;;2.78;1.15;;;20.10;99.90;;;;;;4951475;29;20211;-72
2023/09/29 12:30:08;;;;;;;2.63;1.20;;;20.10;99.90;;;;;;4956869;29;20208;-72
2023/09/29 12:32:35;;;;;;;2.58;1.20;;;19.90;99.90;;;;;;4963306;28;20235;-72
2023/09/29 12:35:02;;;;;;;1.20;0.98;;;20.00;99.90;;;;;;4956784;29;20327;-73
2023/09/29 12:37:30;;;;;;;1.67;1.10;;;20.00;99.90;;;;;;4956465;28;20613;-72
2023/09/29 12:39:57;;;;;;;3.80;1.20;;;19.90;99.90;;;;;;4956258;29;20573;-72
2023/09/29 12:42:25;;;;;;;1.75;0.80;;;19.90;99.90;;;;;;4962912;28;20299;-72
2023/09/29 12:44:52;;;;;;;3.53;1.42;;;19.80;99.90;;;;;;4956516;29;20236;-72
2023/09/29 12:47:19;;;;;;;1.70;0.90;;;19.90;99.90;;;;;;4956563;28;20208;-72
2023/09/29 12:49:47;;;;;;;3.08;0.80;;;19.90;99.90;;;;;;4956743;29;20232;-72
2023/09/29 12:52:15;;;;;;;2.20;0.82;;;19.90;99.90;;;;;;4956424;28;20298;-72
2023/09/29 12:54:45;;;;;;;1.48;0.95;;;19.90;99.90;;;;;;4956516;29;20704;-72
2023/09/29 12:57:13;;;;;;;1.63;0.68;;;19.80;99.90;;;;;;4953169;28;20644;-75
2023/09/29 12:59:40;;;;;;;2.60;0.60;;;19.60;99.90;;;;;;4954048;29;20577;-73
2023/09/29 13:02:08;;;;;;;4.47;1.55;;;19.20;99.90;;;;;;4960296;28;20576;-72
2023/09/29 13:04:36;;;;;;;6.43;0.95;;;19.00;99.90;;;;;;4953815;29;20735;-73
2023/09/29 13:07:04;;;;;;;3.97;1.10;;;18.80;99.90;;;;;;4953897;28;20212;-73
2023/09/29 13:09:30;;;;;;;2.55;0.70;;;18.70;99.90;;;;;;4955176;29;20791;-72
2023/09/29 13:11:59;;;;;;;3.47;0.70;;;18.70;99.90;;;;;;4959675;28;20235;-73
2023/09/29 13:14:26;;;;;;;3.97;0.90;;;18.70;99.90;;;;;;4955000;29;20259;-73
2023/09/29 13:16:53;;;;;;;3.88;1.33;;;18.70;99.90;;;;;;4954971;28;20565;-75
2023/09/29 13:19:20;;;;;;;1.42;0.75;;;18.70;99.90;;;;;;4954320;29;20213;-76
2023/09/29 13:21:48;;;;;;;1.40;0.65;;;18.80;99.90;;;;;;4954766;28;20235;-75
2023/09/29 13:24:14;;;;;;;1.35;0.75;;;18.90;99.90;;;;;;4954633;29;20243;-75
2023/09/29 13:26:42;;;;;;;4.03;0.90;;;19.10;99.90;;;;;;4954547;28;20299;-76
2023/09/29 13:29:10;;;;;;;3.22;1.10;;;19.20;99.90;;;;;;4954832;29;20295;-77
2023/09/29 13:31:37;;;;;;;2.70;0.80;;;19.40;99.90;;;;;;4954567;28;20315;-76
2023/09/29 13:34:07;;;;;;;1.90;0.90;;;19.60;99.90;;;;;;4954352;28;20569;-76
2023/09/29 13:36:35;;;;;;;2.65;1.02;;;19.70;99.90;;;;;;4955246;28;20283;-74
2023/09/29 13:39:04;;;;;;;3.13;1.00;;;19.70;99.90;;;;;;4954979;29;20207;-74
2023/09/29 13:41:32;;;;;;;2.92;1.00;;;19.70;99.90;;;;;;4954323;28;20204;-75
2023/09/29 13:43:59;;;;;;;2.63;0.90;;;19.70;99.90;;;;;;4953973;29;20238;-76
2023/09/29 13:46:27;;;;;;;4.18;1.08;;;19.90;99.90;;;;;;4955069;28;20565;-77
2023/09/29 13:48:54;;;;;;;3.42;1.00;;;20.00;99.90;;;;;;4954738;29;21333;-75
2023/09/29 13:51:21;;;;;;;3.35;1.17;;;20.10;99.90;;;;;;4954362;28;20228;-75
2023/09/29 13:53:48;;;;;;;3.20;1.30;;;20.10;99.90;;;;;;4954746;29;20232;-75
2023/09/29 13:56:15;;;;;;;1.65;1.08;;;20.20;99.90;;;;;;4953348;28;20239;-74
2023/09/29 13:58:42;;;;;;;3.75;1.20;;;20.30;99.90;;;;;;4953690;29;20283;-73
2023/09/29 14:01:17;;;;;;;4.50;1.00;;;20.20;99.90;;;;;;4954149;28;20247;-78
2023/09/29 14:03:45;;;;;;;2.90;1.10;;;20.20;99.90;;;;;;4954423;29;20238;-74
2023/09/29 14:06:18;;;;;;;1.73;1.00;;;20.40;99.90;;;;;;4953981;28;20212;-75
2023/09/29 14:08:45;;;;;;;3.80;0.80;;;20.30;99.90;;;;;;4953805;29;20277;-76
2023/09/29 14:11:12;;;;;;;2.85;1.10;;;20.40;99.90;;;;;;4953659;28;20645;-74
2023/09/29 14:13:39;;;;;;;3.78;0.85;;;20.50;99.90;;;;;;4954281;29;20290;-77
2023/09/29 14:16:06;;;;;;;2.72;1.10;;;20.60;99.90;;;;;;4954110;28;20243;-80
2023/09/29 14:18:33;;;;;;;3.17;0.80;;;20.50;99.90;;;;;;4953792;29;20736;-77
2023/09/29 14:21:02;;;;;;;2.28;1.08;;;20.50;99.90;;;;;;4953929;28;20218;-78
2023/09/29 14:23:29;;;;;;;2.50;1.02;;;20.60;99.90;;;;;;4953737;29;20318;-77
2023/09/29 14:25:56;;;;;;;3.88;1.10;;;20.50;99.90;;;;;;4953483;29;20266;-83
2023/09/29 14:28:23;;;;;;;2.35;1.02;;;20.50;99.90;;;;;;4959618;28;20235;-79
2023/09/29 14:30:50;;;;;;;2.17;0.95;;;20.50;99.90;;;;;;4953749;29;20243;-82
2023/09/29 14:33:17;;;;;;;2.88;0.90;;;20.50;99.90;;;;;;4953543;28;20271;-76
2023/09/29 14:35:43;;;;;;;4.82;0.90;;;20.20;99.90;;;;;;4953627;29;20218;-77
2023/09/29 14:38:12;;;;;;;3.28;1.00;;;20.00;99.90;;;;;;4959023;28;20764;-75
2023/09/29 14:40:39;;;;;;;2.72;0.90;;;19.80;99.90;;;;;;4953650;29;20247;-73
2023/09/29 14:43:05;;;;;;;3.30;1.10;;;19.80;99.90;;;;;;4968364;28;20301;-76
2023/09/29 14:45:32;;;;;;;2.92;0.90;;;19.70;99.90;;;;;;4972028;28;20262;-75
2023/09/29 14:48:01;;;;;;;5.68;1.20;;;19.70;99.90;;;;;;4962439;28;20239;-75
2023/09/29 14:50:28;;;;;;;5.35;1.27;;;19.80;99.90;;;;;;4953211;29;20226;-73
2023/09/29 14:52:57;;;;;;;2.45;0.90;;;19.90;99.90;;;;;;4952900;28;20335;-75
2023/09/29 14:55:26;;;;;;;2.40;0.90;;;20.00;99.90;;;;;;4952601;29;20314;-76
2023/09/29 14:57:54;;;;;;;5.43;1.00;;;19.80;99.90;;;;;;4952893;28;20260;-75
2023/09/29 15:00:22;;;;;;;3.45;0.90;;;19.80;99.90;;;;;;4953297;29;20708;-74
2023/09/29 15:02:49;;;;;;;3.42;1.00;;;19.80;99.90;;;;;;4953327;28;20275;-76
2023/09/29 15:05:16;;;;;;;4.05;0.70;;;19.80;99.90;;;;;;4952806;29;20632;-73
2023/09/29 15:07:42;;;;;;;3.75;0.77;;;19.80;99.90;;;;;;4952829;28;20239;-73
2023/09/29 15:10:10;;;;;;;4.25;1.30;;;19.70;99.90;;;;;;4953598;29;20295;-78
2023/09/29 15:12:38;;;;;;;2.88;0.95;;;19.70;99.90;;;;;;4953668;28;20302;-78
2023/09/29 15:15:07;;;;;;;1.45;0.80;;;19.60;99.90;;;;;;4953425;29;20753;-78
2023/09/29 15:17:35;;;;;;;3.97;0.90;;;19.60;99.90;;;;;;4953552;28;20589;-75
2023/09/29 15:20:04;;;;;;;3.90;0.75;;;19.60;99.90;;;;;;4953041;29;20208;-75
2023/09/29 15:22:31;;;;;;;3.63;0.73;;;19.40;99.90;;;;;;4953347;28;20212;-75
2023/09/29 15:24:58;;;;;;;2.20;0.75;;;19.40;99.90;;;;;;4953423;29;20266;-74
2023/09/29 15:27:26;;;;;;;1.38;0.73;;;19.20;99.90;;;;;;4955878;28;20697;-74
2023/09/29 15:29:54;;;;;;;2.17;1.60;;;19.20;99.90;;;;;;4953150;29;20247;-77
2023/09/29 15:32:21;;;;;;;3.65;0.80;;;19.30;99.90;;;;;;4960040;28;20622;-74
2023/09/29 15:34:48;;;;;;;4.95;0.90;;;19.40;99.90;;;;;;4972726;28;20310;-75
2023/09/29 15:37:15;;;;;;;3.38;1.10;;;19.50;99.90;;;;;;4968389;28;20659;-74
2023/09/29 15:39:42;;;;;;;3.10;1.23;;;19.50;99.90;;;;;;4953210;29;20239;-76
2023/09/29 15:42:09;;;;;;;3.67;1.20;;;19.40;99.90;;;;;;4952991;28;20296;-73
2023/09/29 15:44:37;;;;;;;5.28;1.00;;;19.50;99.90;;;;;;4952445;29;20228;-76
2023/09/29 15:47:05;;;;;;;2.78;1.15;;;19.60;99.90;;;;;;4952823;28;20295;-73
2023/09/29 15:49:32;;;;;;;3.10;1.08;;;19.60;99.90;;;;;;4953165;29;20246;-79
2023/09/29 15:51:59;;;;;;;4.63;1.30;;;19.70;99.90;;;;;;4952485;28;20208;-74
2023/09/29 15:54:26;;;;;;;2.75;0.95;;;19.60;99.90;;;;;;4952592;29;20279;-71
2023/09/29 15:56:53;;;;;;;2.20;0.93;;;19.50;99.90;;;;;;4954342;28;20216;-75
2023/09/29 15:59:20;;;;;;;3.25;1.10;;;19.50;99.90;;;;;;4956124;29;20204;-77
2023/09/29 16:01:47;;;;;;;1.88;1.00;;;19.60;99.90;;;;;;4956609;28;20239;-76
2023/09/29 16:04:15;;;;;;;4.43;1.02;;;19.50;99.90;;;;;;4956340;29;20314;-78
2023/09/29 16:06:42;;;;;;;2.25;0.95;;;19.50;99.90;;;;;;4956817;28;20236;-78
2023/09/29 16:09:09;;;;;;;1.98;0.90;;;19.40;99.90;;;;;;4955648;29;20299;-74
2023/09/29 16:11:36;;;;;;;2.78;0.80;;;19.30;99.90;;;;;;4956003;29;20291;-75
2023/09/29 16:14:04;;;;;;;3.28;0.90;;;19.30;99.90;;;;;;4955802;28;20240;-73
2023/09/29 16:16:32;;;;;;;1.45;0.80;;;19.40;99.90;;;;;;4956055;29;20232;-75
2023/09/29 16:18:58;;;;;;;3.13;0.88;;;19.30;99.90;;;;;;4956259;28;20215;-73
2023/09/29 16:21:27;;;;;;;2.45;0.90;;;19.20;99.90;;;;;;4955881;29;20299;-75
2023/09/29 16:23:54;;;;;;;3.25;0.80;;;19.20;99.90;;;;;;4956197;28;20664;-74
2023/09/29 16:26:20;;;;;;;3.38;0.93;;;19.10;99.90;;;;;;4956162;29;20286;-75
2023/09/29 16:28:47;;;;;;;0.93;0.80;;;19.10;99.90;;;;;;4955910;28;20254;-72
2023/09/29 16:31:15;;;;;;;1.17;0.70;;;19.00;99.90;;;;;;4955812;29;20247;-73
2023/09/29 16:33:44;;;;;;;3.47;1.05;;;18.80;99.90;;;;;;4955248;28;20267;-75
2023/09/29 16:36:18;;;;;;;2.75;0.70;;;18.80;99.90;;;;;;4955755;29;20287;-71
2023/09/29 16:38:46;;;;;;;1.75;0.90;;;18.70;99.90;;;;;;4955019;28;20675;-71
2023/09/29 16:41:23;;;;;;;0.90;0.60;;;18.70;99.90;;;;;;4954964;29;20236;-72
2023/09/29 16:43:50;;;;;;;2.00;0.85;;;18.60;99.90;;;;;;4954805;28;20708;-72
2023/09/29 16:46:18;;;;;;;2.83;0.93;;;18.50;99.90;;;;;;4955563;29;20212;-71
2023/09/29 16:48:46;;;;;;;1.67;0.80;;;18.30;99.90;;;;;;4955381;28;20615;-71
2023/09/29 16:51:13;;;;;;;3.38;0.90;;;18.30;99.90;;;;;;4955178;29;20208;-72
2023/09/29 16:53:41;;;;;;;4.03;0.98;;;18.30;99.90;;;;;;4955466;28;20326;-72
2023/09/29 16:56:09;;;;;;;1.63;0.90;;;18.30;99.90;;;;;;4955212;29;20212;-73
2023/09/29 16:58:37;;;;;;;2.53;0.90;;;18.40;99.90;;;;;;4954909;28;20246;-71
2023/09/29 17:01:04;;;;;;;3.22;1.17;;;18.40;99.90;;;;;;4955508;29;20267;-71
2023/09/29 17:03:31;;;;;;;2.17;0.68;;;18.30;99.90;;;;;;4955160;28;20236;-72
2023/09/29 17:06:00;;;;;;;3.33;1.35;;;18.20;99.90;;;;;;4954803;29;20294;-73
2023/09/29 17:08:27;;;;;;;3.30;1.23;;;18.20;99.90;;;;;;4954498;28;20311;-75
2023/09/29 17:10:54;;;;;;;2.42;1.10;;;18.10;99.90;;;;;;4955319;29;20247;-76
2023/09/29 17:13:22;;;;;;;3.23;1.30;;;18.00;99.90;;;;;;4954932;28;20330;-78
2023/09/29 17:15:49;;;;;;;4.50;1.20;;;18.00;99.90;;;;;;4955488;29;20294;-76
2023/09/29 17:18:16;;;;;;;1.50;0.88;;;17.90;99.90;;;;;;4954018;28;20243;-76
2023/09/29 17:20:43;;;;;;;2.92;1.10;;;17.80;99.90;;;;;;4954402;29;20232;-75
2023/09/29 17:23:10;;;;;;;1.93;0.97;;;17.80;99.90;;;;;;4953997;28;20291;-74
2023/09/29 17:25:37;;;;;;;4.10;0.70;;;17.80;99.90;;;;;;4954241;28;20727;-72
2023/09/29 17:28:04;;;;;;;3.13;0.90;;;17.80;99.90;;;;;;4952667;29;20228;-73
2023/09/29 17:30:33;;;;;;;3.80;1.17;;;17.70;99.90;;;;;;4956041;29;20247;-73
2023/09/29 17:33:00;;;;;;;2.95;1.48;;;17.60;99.90;;;;;;4955590;28;20338;-71
2023/09/29 17:35:29;;;;;;;1.70;0.80;;;17.60;99.90;;;;;;4955728;29;20243;-73
2023/09/29 17:37:56;;;;;;;3.20;1.20;;;17.50;99.90;;;;;;4955336;28;20267;-73
2023/09/29 17:40:23;;;;;;;3.53;1.63;;;17.50;99.90;;;;;;4955654;29;20250;-71
2023/09/29 17:42:50;;;;;;;3.00;1.57;;;17.40;99.90;;;;;;4955424;28;20251;-71
2023/09/29 17:45:17;;;;;;;1.77;1.17;;;17.40;99.90;;;;;;4955288;29;20228;-71
2023/09/29 17:47:46;;;;;;;2.30;1.43;;;17.30;99.90;;;;;;4955006;28;20294;-71
2023/09/29 17:50:13;;;;;;;4.00;1.50;;;17.20;99.90;;;;;;4955262;29;20258;-71
2023/09/29 17:52:40;;;;;;;2.03;1.17;;;17.20;99.90;;;;;;4955716;28;20204;-71
2023/09/29 17:55:07;;;;;;;4.32;1.23;;;17.10;99.90;;;;;;4955386;29;20283;-71
2023/09/29 17:57:35;;;;;;;1.70;1.10;;;17.00;99.90;;;;;;4955311;28;20220;-71
2023/09/29 18:00:04;;;;;;;1.77;1.33;;;16.90;99.90;;;;;;4955379;29;20597;-71
2023/09/29 18:02:30;;;;;;;1.60;1.30;;;16.80;99.90;;;;;;4955460;28;20204;-71
2023/09/29 18:04:59;;;;;;;3.60;1.23;;;16.70;99.90;;;;;;4955447;29;20751;-72
2023/09/29 18:07:26;;;;;;;1.10;0.70;;;16.60;99.90;;;;;;4955045;28;20432;-72
2023/09/29 18:09:53;;;;;;;2.23;1.07;;;16.60;99.90;;;;;;4955456;29;20243;-72
2023/09/29 18:12:20;;;;;;;4.07;1.50;;;16.50;99.90;;;;;;4954609;28;20203;-71
2023/09/29 18:14:47;;;;;;;3.60;2.53;;;16.50;99.90;;;;;;4945668;29;20765;-71
2023/09/29 18:17:14;;;;;;;6.13;2.70;;;16.30;99.90;;;;;;4947126;28;20232;-71
2023/09/29 18:19:41;;;;;;;6.93;2.53;;;16.20;99.90;;;;;;4947986;28;20288;-71
2023/09/29 18:22:09;;;;;;;5.30;1.70;;;16.20;99.90;;;;;;4949532;28;20303;-71
2023/09/29 18:24:36;;;;;;;3.10;1.60;;;16.10;99.90;;;;;;4943742;29;20252;-72
2023/09/29 18:27:03;;;;;;;5.67;2.70;;;16.10;99.90;;;;;;4942534;29;20235;-72
2023/09/29 18:29:30;;;;;;;5.53;2.40;;;16.00;99.90;;;;;;4951363;29;20203;-72
2023/09/29 18:31:57;;;;;;;5.50;2.40;;;15.90;99.90;;;;;;4950085;29;20204;-72
2023/09/29 18:34:24;;;;;;;6.07;2.33;;;15.80;99.90;;;;;;4947942;29;20385;-72
2023/09/29 18:36:51;;;;;;;5.73;2.60;;;15.80;99.90;;;;;;4947202;29;20295;-72
2023/09/29 18:39:19;;;;;;;7.57;3.23;;;15.80;99.90;;;;;;4948970;29;20208;-71
2023/09/29 18:41:46;;;;;;;6.33;3.13;;;15.80;99.90;;;;;;4949898;29;20294;-72
2023/09/29 18:44:13;;;;;;;3.90;2.27;;;15.80;99.90;;;;;;4951148;29;20323;-72
2023/09/29 18:46:40;;;;;;;4.63;2.37;;;15.80;99.90;;;;;;4948581;29;20283;-71
2023/09/29 18:49:07;;;;;;;4.50;2.00;;;15.80;99.90;;;;;;4953202;29;20873;-71
2023/09/29 18:51:34;;;;;;;3.37;1.90;;;15.70;99.90;;;;;;4939652;29;20208;-72
2023/09/29 18:54:01;;;;;;;3.43;2.00;;;15.70;99.90;;;;;;4947615;29;20323;-72
2023/09/29 18:56:30;;;;;;;3.87;1.77;;;15.60;99.90;;;;;;4949583;28;20248;-72
2023/09/29 18:58:56;;;;;;;3.43;1.97;;;15.50;99.90;;;;;;4952112;29;20245;-71
2023/09/29 19:01:24;;;;;;;3.33;1.57;;;15.50;99.90;;;;;;4947540;29;20255;-72
2023/09/29 19:03:51;;;;;;;4.60;2.00;;;15.40;99.90;;;;;;4950962;29;20228;-72
2023/09/29 19:06:19;;;;;;;3.80;1.67;;;15.30;99.90;;;;;;4949569;29;20240;-72
2023/09/29 19:08:46;;;;;;;4.80;1.53;;;15.20;99.90;;;;;;4950051;29;20204;-72
2023/09/29 19:11:18;;;;;;;3.53;1.60;;;15.20;99.90;;;;;;4947452;29;20235;-71
2023/09/29 19:13:47;;;;;;;2.83;1.53;;;15.10;99.90;;;;;;4947560;29;20638;-72
2023/09/29 19:16:14;;;;;;;5.27;1.83;;;15.00;99.90;;;;;;4953645;29;20295;-72
2023/09/29 19:18:41;;;;;;;3.23;1.30;;;15.00;99.90;;;;;;4944513;29;20669;-72
2023/09/29 19:21:17;;;;;;;2.47;1.47;;;14.90;99.90;;;;;;4939500;29;20653;-71
2023/09/29 19:23:43;;;;;;;2.57;1.57;;;14.90;99.90;;;;;;4941867;29;20228;-72
2023/09/29 19:26:14;;;;;;;4.27;1.53;;;14.90;99.90;;;;;;4941376;29;20582;-72
2023/09/29 19:28:41;;;;;;;5.97;1.37;;;14.90;99.90;;;;;;4939519;29;20247;-72
2023/09/29 19:31:09;;;;;;;2.67;1.30;;;14.80;99.90;;;;;;4954604;28;20294;-71
2023/09/29 19:33:36;;;;;;;1.43;1.23;;;14.90;99.90;;;;;;4953896;29;20271;-72
2023/09/29 19:36:04;;;;;;;2.23;1.23;;;14.90;99.90;;;;;;4956036;29;20239;-71
2023/09/29 19:38:31;;;;;;;2.87;1.50;;;14.90;99.90;;;;;;4953246;29;20208;-73
2023/09/29 19:40:58;;;;;;;4.97;1.50;;;14.80;99.90;;;;;;4955515;29;20259;-72
2023/09/29 19:43:25;;;;;;;5.00;1.87;;;14.80;99.90;;;;;;4950758;29;20728;-73
2023/09/29 19:45:52;;;;;;;4.43;2.23;;;14.80;99.90;;;;;;4954644;29;20644;-72
2023/09/29 19:48:20;;;;;;;3.40;1.70;;;14.70;99.90;;;;;;4953130;29;20212;-72
2023/09/29 19:50:47;;;;;;;3.30;1.60;;;14.60;99.90;;;;;;4952400;29;20208;-71
2023/09/29 19:53:14;;;;;;;4.30;1.67;;;14.70;99.90;;;;;;4955038;29;20299;-72
2023/09/29 19:55:47;;;;;;;3.17;1.60;;;14.60;99.90;;;;;;4949560;29;20232;-72
2023/09/29 19:58:14;;;;;;;3.20;1.60;;;14.40;99.90;;;;;;4948815;29;20208;-72
2023/09/29 20:00:41;;;;;;;3.83;1.60;;;14.40;99.90;;;;;;4949857;29;20308;-71
2023/09/29 20:03:08;;;;;;;4.63;1.80;;;14.40;99.90;;;;;;4947505;29;20204;-71
2023/09/29 20:05:40;;;;;;;3.23;1.70;;;14.30;99.90;;;;;;4946211;29;20228;-72
2023/09/29 20:08:07;;;;;;;3.83;1.60;;;14.20;99.90;;;;;;4944273;29;20215;-71
2023/09/29 20:10:34;;;;;;;3.20;1.53;;;14.20;99.90;;;;;;4948137;29;20291;-72
2023/09/29 20:13:01;;;;;;;2.07;1.30;;;14.10;99.90;;;;;;4955579;29;20299;-71
2023/09/29 20:15:27;;;;;;;4.80;1.50;;;14.10;99.90;;;;;;4945074;29;20319;-71
2023/09/29 20:17:54;;;;;;;4.63;2.40;;;14.10;99.90;;;;;;4955630;29;20645;-71
2023/09/29 20:20:21;;;;;;;5.97;2.10;;;14.10;99.90;;;;;;4941582;29;20300;-71
2023/09/29 20:22:50;;;;;;;6.27;2.53;;;14.10;99.90;;;;;;4955116;29;20219;-71
2023/09/29 20:25:16;;;;;;;3.97;2.10;;;14.20;99.90;;;;;;4952377;29;20278;-71
2023/09/29 20:27:43;;;;;;;3.30;1.53;;;14.10;99.90;;;;;;4954646;29;20243;-70
2023/09/29 20:30:11;;;;;;;2.57;1.60;;;14.00;99.90;;;;;;4952330;29;20215;-71
2023/09/29 20:32:38;;;;;;;2.03;1.50;;;14.00;99.90;;;;;;4952965;29;20208;-71
2023/09/29 20:35:06;;;;;;;3.63;1.40;;;13.90;99.90;;;;;;4953656;29;20326;-71
2023/09/29 20:37:34;;;;;;;4.00;1.60;;;13.90;99.90;;;;;;4949633;29;20304;-71
2023/09/29 20:40:03;;;;;;;4.90;1.73;;;13.90;99.90;;;;;;4945402;29;20236;-71
2023/09/29 20:42:30;;;;;;;2.47;1.33;;;13.80;99.90;;;;;;4938786;29;20230;-71
2023/09/29 20:44:58;;;;;;;4.17;2.13;;;13.80;99.90;;;;;;4938393;29;20240;-70
2023/09/29 20:47:25;;;;;;;3.67;2.00;;;13.80;99.90;;;;;;4951420;29;20263;-71
2023/09/29 20:49:53;;;;;;;4.97;1.77;;;13.80;99.90;;;;;;4951634;29;20239;-71